Timeline UpdatesTrip UpdatesNews PostsPvt PostsTravel TipsAdmin PostsConv PostsFollowed PostsChat RequestsBlog PostsPNR Posts

Disclaimer
Search
 
 
Wed Apr 16, 2014 09:50:21 ISTHomeTrainsΣChainsAtlasPNRForumGalleryNewsFAQTripsMembersLoginFeedback
No Recent News for this Train
Other Trains in the News **new
Latest...
.
Fri Feb 21, 2014 (02:47PM)
⇐ Return Journey: Train# 54540

54539/Nizamuddin - Ambala Passenger (UnReserved)

Nov 16 2013 (6:16PM)
Change Departure Station:
Change Arrival Station:
Post a Train Travel TipPost a Train Travel Tip **new
Post a Comment/Question/Picture/VideoPost a Comment/Question/Picture/Video
Pantry/Catering
✕ NO Pantry Car
✕ NO Catering
RSA - Rake Sharing
Rake/Coach Composition
15 GENERAL COACHES,2 SLR,1 HCPV
Loco
TKD WDP-3A/WDM-3A / LDH WDM-3A
News    PNR    Forum    Time-Table    Availability    Fare Chart    Map    Arr/Dep History    Trips    Gallery    ΣChains    X/O    Timeline    
Travel Time: 5h 33m    21 halts    Distance: 162 km    Avg Speed: 29 km/hr
Type: Passenger
Zone: NR/Northern
Departs @ 08:42 (Avg 36m late)
Platform# 1
SMTWTFS
Khatauli/KAT 
Arrives @ 14:15 (Avg 44m late)
Platform# 2
SMTWTFS
Ambala Cantt. Junction/UMB 

21 halts. 21 intermediate Stations between Khatauli and Ambala Cantt. Junction

Hide intermediate Stations  Show Old Time-Table

#CodeStation NameX/OArrivesAvgDepartsAvgHaltPFDay#KmSpeedElevZoneAddress
1NZMDelhi Hazrat Nizamuddin (7)  -03:00+3071-111.015209mNRNizamuddin East/Sarai KaleKhan Bus Terminal, Delhi NCT
1.1PGMDPragati Maidan  03:12-03:12-  1-107.9 15208mNRIP Estate, Delhi NCT
1.2TKJTilak Bridge (4)  03:19-03:19-  1-106.2 15214mNRNew Delhi, Delhi NCT
1.3CSBShivaji Bridge (4)  03:25-03:25-  1-104.9 15213mNRConnaught Place, Delhi NCT
2NDLSNew Delhi (16)X  03:30+2603:45+2115m51-103.69215mNRAjmeri Gate/Paharganj, Delhi NCT
2.1DSBSadar Bazar (4)  03:56-03:56-  1-101.9 9220mNRSadar Bazaar, Delhi NCT
3DLIOld Delhi Junction (16)X  04:05+2404:30+2325m101-100.629219mNRNear Chandni Chowk Metro Station, Delhi NCT
4DSAShahdara Junction (4)  04:43+2804:45+282m--1-94.324212mNRCircular Rd, Delhi NCT
5VVBVivek Vihar (2)  04:51+3004:52+301m--1-91.946209mNRJhilmil Industrial Area, Delhi NCT
5.1DSAPDelhi Shahdara A Panel  04:52-04:52-  1-91.7 46208mNRVivek Vihar Phase I, Delhi NCT
6SBBSahibabad Junction (5)X  04:58+2805:00+272m11-87.314209mNRGhaziabad, Uttar Pradesh
7GZBGhaziabad Junction (6)  05:28+1805:30+192m11-80.771217mNRGhaziabad, Uttar Pradesh
8GZNNew Ghaziabad (2)  05:35+2705:36+271m--1-74.738213mNRGhaziabad, Uttar Pradesh
9GUHGuldhar (2)  05:42+2705:43+281m--1-71.038224mNRGhaziabad, Uttar Pradesh
10DXHDuhai Halt (2)  05:49+2805:50+281m--1-67.242219mNRGhaziabad, Uttar Pradesh
11MUDMuradnagar (2)X  05:56+2805:57+291m--1-63.055220mNRGhaziabad, Uttar Pradesh
12MDNRModinagar (2)  06:08+3206:09+331m--1-52.952221mNRGhaziabad, Uttar Pradesh
13MUZMohiuddinpur (2)X  06:18+3106:19+311m--1-45.051222mNRMeerut, Uttar Pradesh
14PRTPPartapur (2)  06:25+3206:26+321m--1-40.028223mNRMeerut, Uttar Pradesh
15MTCMeerut City Junction (6)XO  06:40+2907:32+2452m31-33.437229mNRMeerut, Uttar Pradesh
16MUTMeerut Cantt. (2)X  07:39+2607:40+291m--1-29.125230mNRMeerut, Uttar Pradesh
17PQYPabli Khas (1)  07:51+2507:52+271m11-24.544229mNRMeerut, Uttar Pradesh
18DRLADaurala (1)X  08:01+2608:02+331m11-18.038232mNRMeerut, Uttar Pradesh
19SKFSakhoti Tanda (2)XO  08:16+3108:17+411m--1-9.223237mNRMeerut, Uttar Pradesh
20KAT»Khatauli (2)»  08:41+2708:42+361m110.062239mNRKhatauli, Uttar Pradesh
21MSPMansurpur (1)X  08:51+3608:52+401m119.3122242mNRMuzaffarnagar, Uttar Pradesh
22JDWJarauda Nara (1)X  08:56+4308:57+471m1117.426245mNRMuzaffarNagar, Uttar Pradesh
23MOZMuzaffarnagar (3)  09:08+4709:10+552m--122.227247mNRMuzaffarNagar, Uttar Pradesh
24BMHRBamanheri (2)X  09:21+5309:22+1:011m--127.255249mNRMuzaffarnagar, Uttar Pradesh
25RNARohana Kalan (2)  09:30+1:0209:31+1:071m--134.647251mNRMuzaffarnagar, Uttar Pradesh
26DBDDeoband (2)X  09:46+1:0509:47+1:111m--146.255258mNRSaharanpur, Uttar Pradesh
27THJTalheri Buzurg (2)X  09:58+1:0709:59+1:071m--156.241263mNRSH 59, Uttar Pradesh
28NGLNangal (2)X  10:10+1:0610:11+1:081m--163.855269mNRSaharanpur, Uttar Pradesh
29TPZTapri Junction (2)X  10:22+1:0210:23+1:071m2173.98274mNRTapri -Saharanpur, Uttar Pradesh
30SRESaharanpur Junction (6)XO  11:15+1:0011:45+5030m--180.442276mNRSaharanpur, Uttar Pradesh
31PKYPilkhani (2)  11:56+5311:57+541m2188.148277mNRSaharanpur, Uttar Pradesh
32SSWSarsawa (2)X  12:04+5412:05+1:011m1193.662269mNRSaharanpur, Uttar Pradesh
33KNZKalanour (2)X  12:15+1:0212:16+1:031m--1104.148272mNRNational Highway 73, Haryana
34JUDYamunanagar-Jagadhri (3)XO  12:24+1:0312:25+1:081m31110.517275mNRYamunanagar, Haryana
35JUDWJagadhri Workshop (2)  12:43+5912:44+1:001m21115.540280mNRRailway Workshop Road, Haryana
36DZPDarazpur (2)X  12:51+1:0012:52+1:001m11120.258276mNRYamunanagar, Haryana
37MFBMustafabad (2)O  13:00+1:0013:01+1:041m21127.919281mNRNational Highway 73, Haryana
38RAABarara (2)  13:29+4813:30+491m21136.846279mNRBarara, Haryana
39TDWTandwal (2)  13:37+4713:38+471m21142.162279mNRState Highway 31, Haryana
40KESKesri (2)  13:44+4713:45+471m11148.435275mNRAmbala, Haryana
41DOKYDukheri (2)  13:55+4513:56+461m11154.223275mNRDevsthali Rd, Haryana
42UMB•Ambala Cantt. Junction (7)•  14:15+44-21161.5-278mNRAmbala 133001, Haryana
Scroll to Top
Scroll to Bottom